createdAt,value
2022-12-20T00:01:28.801Z,72.93
2022-12-20T00:04:30.472Z,81.03
2022-12-20T00:07:32.787Z,84.00
2022-12-20T00:10:41.734Z,71.70
2022-12-20T00:13:46.433Z,85.07
2022-12-20T00:16:48.058Z,72.00
2022-12-20T00:19:49.692Z,80.20
2022-12-20T00:22:51.407Z,74.00
2022-12-20T00:25:53.290Z,75.30
2022-12-20T00:28:56.123Z,73.75
2022-12-20T00:31:57.802Z,75.30
2022-12-20T00:34:59.440Z,73.80
2022-12-20T00:38:01.096Z,80.05
2022-12-20T00:41:14.095Z,99.03
2022-12-20T00:44:15.804Z,72.60
2022-12-20T00:47:17.703Z,72.22
2022-12-20T00:50:19.363Z,81.10
2022-12-20T00:53:26.168Z,82.20
2022-12-20T00:56:28.220Z,80.10
2022-12-20T00:59:29.888Z,78.28
2022-12-20T01:02:31.689Z,82.43
2022-12-20T01:05:34.021Z,75.90
2022-12-20T01:08:35.776Z,73.03
2022-12-20T01:11:38.848Z,76.62
2022-12-20T01:14:40.730Z,86.93
2022-12-20T01:17:42.505Z,81.10
2022-12-20T01:20:44.105Z,77.22
2022-12-20T01:23:46.236Z,84.90
2022-12-20T01:26:48.229Z,79.22
2022-12-20T01:29:49.966Z,85.55
2022-12-20T01:32:51.609Z,92.07
2022-12-20T01:36:01.269Z,82.57
2022-12-20T01:39:09.478Z,78.60
2022-12-20T01:42:15.433Z,74.22
2022-12-20T01:45:27.275Z,85.20
2022-12-20T01:48:29.120Z,74.10
2022-12-20T01:51:34.587Z,74.28
2022-12-20T01:54:41.171Z,73.97
2022-12-20T01:57:48.149Z,78.30
2022-12-20T02:00:49.877Z,82.03
2022-12-20T02:03:54.130Z,74.55
2022-12-20T02:06:56.259Z,82.80
2022-12-20T02:10:00.649Z,73.40
2022-12-20T02:13:12.577Z,68.55
2022-12-20T02:16:22.847Z,74.78
2022-12-20T02:19:46.533Z,77.07
2022-12-20T02:23:13.642Z,81.22
2022-12-20T02:27:00.455Z,67.18
2022-12-20T02:30:17.770Z,74.97
2022-12-20T02:33:22.230Z,75.93
2022-12-20T02:36:25.577Z,85.60
2022-12-20T02:39:29.893Z,72.25
2022-12-20T02:42:33.302Z,78.12
2022-12-20T02:45:37.573Z,81.65
2022-12-20T02:48:41.646Z,75.50
2022-12-20T02:51:47.600Z,80.45
2022-12-20T02:54:49.312Z,71.75
2022-12-20T02:58:00.643Z,74.03
2022-12-20T03:01:09.117Z,82.55
2022-12-20T03:04:11.585Z,76.62
2022-12-20T03:07:14.331Z,74.12
2022-12-20T03:10:17.646Z,74.47
2022-12-20T03:13:19.885Z,81.03
2022-12-20T03:16:22.264Z,80.18
2022-12-20T03:19:24.512Z,83.90
2022-12-20T03:22:26.202Z,80.95
2022-12-20T03:25:27.961Z,82.20
2022-12-20T03:28:29.622Z,81.43
2022-12-20T03:31:31.500Z,88.40
2022-12-20T03:34:33.254Z,86.40
2022-12-20T03:37:34.893Z,73.20
2022-12-20T03:40:36.528Z,76.70
2022-12-20T03:43:38.152Z,76.62
2022-12-20T03:46:39.965Z,70.53
2022-12-20T03:49:41.642Z,70.35
2022-12-20T03:52:43.275Z,72.53
2022-12-20T03:55:45.757Z,71.53
2022-12-20T03:58:47.546Z,66.10
2022-12-20T04:01:49.305Z,79.97
2022-12-20T04:04:51.127Z,78.78
2022-12-20T04:07:52.787Z,77.62
2022-12-20T04:11:12.929Z,81.75
2022-12-20T04:14:14.565Z,73.60
2022-12-20T04:17:16.246Z,68.70
2022-12-20T04:20:20.766Z,68.85
2022-12-20T04:23:22.480Z,69.87
2022-12-20T04:26:25.312Z,64.55
2022-12-20T04:29:27.082Z,75.95
2022-12-20T04:32:28.712Z,81.28
2022-12-20T04:35:30.341Z,85.47
2022-12-20T04:38:31.982Z,76.47
2022-12-20T04:41:33.649Z,74.95
2022-12-20T04:44:35.295Z,80.68
2022-12-20T04:47:36.974Z,78.40
2022-12-20T04:50:39.582Z,75.97
2022-12-20T04:53:49.965Z,77.20
2022-12-20T04:56:51.607Z,70.90
2022-12-20T04:59:53.264Z,79.45
2022-12-20T05:02:55.057Z,79.25
2022-12-20T05:05:56.846Z,70.60
2022-12-20T05:08:58.566Z,73.43
2022-12-20T05:12:00.234Z,71.78
2022-12-20T05:15:01.933Z,79.68
2022-12-20T05:18:04.067Z,85.72
2022-12-20T05:21:24.617Z,86.00
2022-12-20T05:24:44.681Z,77.25
2022-12-20T05:27:46.329Z,89.68
2022-12-20T05:30:47.961Z,81.12
2022-12-20T05:33:49.668Z,78.82
2022-12-20T05:36:51.562Z,82.05
2022-12-20T05:39:53.186Z,73.25
2022-12-20T05:42:55.302Z,92.40
2022-12-20T05:45:56.955Z,84.22
2022-12-20T05:48:58.777Z,87.65
2022-12-20T05:52:02.427Z,83.65
2022-12-20T05:55:04.300Z,81.22
2022-12-20T05:58:07.454Z,88.40
2022-12-20T06:01:10.486Z,75.90
2022-12-20T06:04:12.242Z,73.68
2022-12-20T06:07:13.977Z,72.20
2022-12-20T06:10:15.673Z,74.65
2022-12-20T06:13:17.743Z,76.65
2022-12-20T06:16:20.825Z,70.05
2022-12-20T06:19:22.530Z,75.90
2022-12-20T06:22:24.144Z,85.03
2022-12-20T06:25:25.848Z,79.37
2022-12-20T06:28:27.525Z,74.50
2022-12-20T06:31:29.274Z,77.43
2022-12-20T06:34:32.078Z,77.55
2022-12-20T06:37:33.878Z,79.60
2022-12-20T06:40:35.552Z,64.05
2022-12-20T06:43:37.224Z,76.07
2022-12-20T06:46:38.965Z,72.45
2022-12-20T06:49:40.578Z,91.12
2022-12-20T06:52:42.369Z,82.93
2022-12-20T06:55:47.943Z,81.20
2022-12-20T06:58:49.556Z,72.20
2022-12-20T07:01:51.398Z,77.30
2022-12-20T07:04:53.515Z,68.43
2022-12-20T07:07:55.160Z,67.53
2022-12-20T07:10:57.011Z,73.68
2022-12-20T07:13:59.053Z,68.75
2022-12-20T07:17:00.905Z,82.37
2022-12-20T07:20:07.584Z,81.35
2022-12-20T07:23:12.689Z,78.12
2022-12-20T07:26:15.426Z,66.75
2022-12-20T07:29:17.065Z,67.05
2022-12-20T07:32:18.877Z,63.53
2022-12-20T07:35:20.580Z,74.00
2022-12-20T07:38:22.254Z,69.53
2022-12-20T07:41:25.223Z,71.95
2022-12-20T07:44:26.847Z,75.32
2022-12-20T07:47:29.403Z,62.03
2022-12-20T07:50:32.960Z,59.22
2022-12-20T07:53:40.217Z,63.60
2022-12-20T07:56:47.386Z,61.92
2022-12-20T07:59:54.571Z,87.40
2022-12-20T08:03:04.834Z,66.15
2022-12-20T08:06:08.179Z,61.33
2022-12-20T08:09:13.495Z,56.20
2022-12-20T08:12:18.267Z,55.35
2022-12-20T08:15:22.425Z,52.70
2022-12-20T08:18:24.336Z,51.80
2022-12-20T08:21:26.579Z,43.20
2022-12-20T08:24:28.240Z,49.88
2022-12-20T08:27:29.971Z,46.00
2022-12-20T08:30:31.769Z,44.65
2022-12-20T08:33:35.184Z,46.10
2022-12-20T08:36:37.022Z,45.55
2022-12-20T08:39:39.170Z,46.30
2022-12-20T08:42:40.803Z,46.67
2022-12-20T08:45:42.513Z,54.45
2022-12-20T08:48:44.257Z,52.45
2022-12-20T08:51:45.960Z,47.05
2022-12-20T08:54:47.688Z,48.87
2022-12-20T08:57:49.309Z,70.93
2022-12-20T09:00:50.942Z,53.13
2022-12-20T09:03:53.328Z,69.05
2022-12-20T09:06:54.983Z,50.35
2022-12-20T09:09:56.587Z,49.75
2022-12-20T09:12:58.216Z,49.63
2022-12-20T09:16:04.693Z,57.97
2022-12-20T09:19:06.870Z,56.13
2022-12-20T09:22:28.967Z,55.50
2022-12-20T09:25:30.622Z,53.08
2022-12-20T09:28:33.563Z,46.33
2022-12-20T09:31:35.390Z,51.72
2022-12-20T09:34:37.120Z,45.12
2022-12-20T09:37:38.764Z,43.85
2022-12-20T09:40:48.502Z,55.33
2022-12-20T09:43:50.713Z,42.00
2022-12-20T09:47:20.749Z,37.38
2022-12-20T09:50:38.112Z,42.50
2022-12-20T09:53:45.779Z,41.53
2022-12-20T09:57:18.215Z,46.30
2022-12-20T10:00:20.998Z,47.38
2022-12-20T10:03:29.246Z,46.72
2022-12-20T10:07:00.683Z,41.70
2022-12-20T10:10:05.140Z,46.05
2022-12-20T10:13:16.570Z,46.97
2022-12-20T10:16:25.605Z,50.28
2022-12-20T10:19:27.290Z,46.20
2022-12-20T10:22:53.011Z,43.90
2022-12-20T10:25:57.622Z,47.30
2022-12-20T10:28:59.490Z,50.90
2022-12-20T10:32:02.286Z,54.83
2022-12-20T10:35:10.072Z,56.40
2022-12-20T10:38:13.850Z,41.72
2022-12-20T10:41:21.809Z,48.87
2022-12-20T10:44:28.390Z,51.45
2022-12-20T10:47:38.940Z,45.55
2022-12-20T10:50:40.703Z,55.58
2022-12-20T10:54:01.380Z,49.53
2022-12-20T10:57:27.718Z,48.80
2022-12-20T11:00:31.019Z,46.80
2022-12-20T11:03:33.004Z,47.05
2022-12-20T11:06:37.781Z,47.50
2022-12-20T11:09:54.916Z,42.25
2022-12-20T11:12:59.081Z,46.77
2022-12-20T11:16:01.731Z,39.55
2022-12-20T11:19:17.402Z,48.55
2022-12-20T11:22:34.806Z,54.13
2022-12-20T11:25:48.550Z,44.20
2022-12-20T11:29:24.314Z,51.53
2022-12-20T11:32:28.603Z,45.12
2022-12-20T11:35:39.284Z,39.47
2022-12-20T11:38:45.652Z,34.17
2022-12-20T11:42:02.143Z,43.40
2022-12-20T11:45:25.279Z,43.42
2022-12-20T11:49:01.030Z,41.00
2022-12-20T11:52:24.301Z,50.22
2022-12-20T11:55:35.041Z,43.30
2022-12-20T11:59:00.253Z,43.40
2022-12-20T12:02:13.175Z,51.67
2022-12-20T12:05:29.942Z,42.55
2022-12-20T12:08:40.920Z,47.62
2022-12-20T12:12:06.827Z,52.62
2022-12-20T12:15:16.992Z,47.83
2022-12-20T12:18:25.447Z,41.92
2022-12-20T12:21:33.669Z,46.37
2022-12-20T12:24:42.623Z,39.40
2022-12-20T12:27:44.870Z,38.55
2022-12-20T12:30:56.902Z,32.65
2022-12-20T12:34:27.524Z,38.70
2022-12-20T12:37:53.213Z,50.28
2022-12-20T12:41:06.712Z,50.75
2022-12-20T12:44:46.119Z,43.53
2022-12-20T12:47:56.762Z,40.47
2022-12-20T12:50:59.554Z,51.53
2022-12-20T12:54:24.428Z,39.80
2022-12-20T12:57:26.171Z,40.03
2022-12-20T13:00:54.075Z,40.60
2022-12-20T13:03:55.844Z,36.40
2022-12-20T13:07:18.845Z,43.03
2022-12-20T13:10:21.969Z,39.72
2022-12-20T13:13:24.168Z,34.03
2022-12-20T13:17:02.312Z,33.97
2022-12-20T13:19:53.874Z,36.97
2022-12-20T13:23:07.882Z,35.00
2022-12-20T13:26:50.501Z,38.25
2022-12-20T13:30:13.239Z,37.45
2022-12-20T13:33:30.378Z,35.58
2022-12-20T13:36:37.861Z,42.33
2022-12-20T13:39:39.867Z,42.92
2022-12-20T13:42:43.512Z,33.25
2022-12-20T13:45:51.388Z,59.85
2022-12-20T13:48:57.116Z,52.47
2022-12-20T13:52:23.146Z,41.75
2022-12-20T13:55:39.160Z,35.72
2022-12-20T13:58:43.896Z,37.30
2022-12-20T14:01:53.787Z,43.90
2022-12-20T14:05:10.308Z,39.05
2022-12-20T14:08:23.017Z,44.28
2022-12-20T14:11:29.479Z,47.00
2022-12-20T14:14:31.477Z,48.00
2022-12-20T14:17:33.565Z,47.83
2022-12-20T14:20:37.690Z,43.42
2022-12-20T14:23:47.631Z,37.08
2022-12-20T14:26:52.734Z,36.65
2022-12-20T14:29:54.413Z,43.17
2022-12-20T14:32:57.129Z,42.75
2022-12-20T14:36:07.991Z,48.38
2022-12-20T14:39:32.582Z,47.53
2022-12-20T14:42:36.357Z,41.55
2022-12-20T14:45:38.737Z,51.13
2022-12-20T14:48:40.441Z,47.38
2022-12-20T14:51:42.265Z,43.60
2022-12-20T14:55:07.626Z,61.25
2022-12-20T14:58:31.279Z,65.12
2022-12-20T15:01:37.069Z,51.67
2022-12-20T15:04:41.651Z,57.50
2022-12-20T15:07:43.316Z,53.10
2022-12-20T15:10:55.261Z,40.83
2022-12-20T15:13:59.050Z,47.78
2022-12-20T15:17:00.836Z,49.83
2022-12-20T15:20:02.468Z,54.58
2022-12-20T15:23:04.213Z,48.90
2022-12-20T15:26:05.851Z,49.95
2022-12-20T15:29:15.280Z,45.97
2022-12-20T15:32:34.837Z,59.70
2022-12-20T15:35:37.166Z,57.15
2022-12-20T15:39:03.937Z,44.72
2022-12-20T15:42:04.216Z,45.58
2022-12-20T15:45:06.225Z,71.25
2022-12-20T15:48:14.029Z,60.10
2022-12-20T15:51:30.436Z,58.00
2022-12-20T15:54:37.125Z,60.30
2022-12-20T15:57:38.775Z,53.70
2022-12-20T16:00:41.718Z,154.00
2022-12-20T16:03:43.555Z,72.57
2022-12-20T16:06:47.657Z,59.03
2022-12-20T16:09:49.367Z,51.42
2022-12-20T16:12:51.026Z,60.63
2022-12-20T16:15:53.615Z,64.30
2022-12-20T16:18:55.565Z,55.92
2022-12-20T16:21:58.117Z,47.58
2022-12-20T16:24:59.739Z,48.15
2022-12-20T16:28:01.712Z,51.80
2022-12-20T16:31:11.439Z,67.65
2022-12-20T16:34:16.177Z,58.83
2022-12-20T16:37:18.246Z,59.78
2022-12-20T16:40:19.987Z,57.40
2022-12-20T16:43:21.630Z,47.62
2022-12-20T16:46:27.311Z,42.90
2022-12-20T16:49:29.021Z,46.78
2022-12-20T16:52:30.884Z,48.10
2022-12-20T16:55:39.445Z,49.60
2022-12-20T16:59:17.406Z,72.00
2022-12-20T17:02:20.000Z,77.32
2022-12-20T17:11:43.352Z,61.55
2022-12-20T17:14:45.222Z,65.22
2022-12-20T17:17:47.313Z,83.53
2022-12-20T17:20:49.032Z,70.03
2022-12-20T17:23:51.798Z,56.78
2022-12-20T17:26:53.570Z,58.20
2022-12-20T17:29:55.248Z,63.20
2022-12-20T17:32:56.877Z,52.62
2022-12-20T17:35:58.536Z,67.18
2022-12-20T17:39:00.181Z,74.65
2022-12-20T17:42:01.929Z,67.45
2022-12-20T17:45:03.862Z,51.70
2022-12-20T17:48:05.899Z,50.65
2022-12-20T17:51:15.136Z,72.35
2022-12-20T17:54:22.068Z,73.18
2022-12-20T17:57:23.738Z,95.20
2022-12-20T18:00:34.768Z,64.50
2022-12-20T18:04:02.949Z,73.70
2022-12-20T18:07:02.269Z,74.32
2022-12-20T18:10:04.232Z,76.65
2022-12-20T18:13:06.402Z,78.00
2022-12-20T18:16:08.617Z,68.25
2022-12-20T18:19:18.448Z,67.30
2022-12-20T18:22:20.088Z,73.05
2022-12-20T18:25:22.061Z,70.35
2022-12-20T18:28:23.959Z,65.90
2022-12-20T18:31:28.353Z,68.72
2022-12-20T18:34:30.170Z,67.43
2022-12-20T18:37:32.241Z,85.25
2022-12-20T18:40:34.234Z,56.10
2022-12-20T18:43:36.255Z,60.38
2022-12-20T18:46:38.438Z,80.32
2022-12-20T18:49:40.332Z,75.12
2022-12-20T18:52:43.851Z,71.25
2022-12-20T18:55:48.886Z,76.65
2022-12-20T18:58:50.692Z,56.67
2022-12-20T19:01:53.281Z,64.53
2022-12-20T19:04:55.166Z,72.68
2022-12-20T19:07:57.377Z,65.93
2022-12-20T19:11:04.353Z,74.28
2022-12-20T19:14:07.858Z,80.95
2022-12-20T19:17:10.044Z,67.68
2022-12-20T19:20:11.812Z,67.40
2022-12-20T19:23:13.995Z,68.80
2022-12-20T19:26:16.920Z,70.62
2022-12-20T19:29:20.901Z,124.85
2022-12-20T19:32:22.938Z,132.98
2022-12-20T19:35:54.076Z,58.80
2022-12-20T19:38:52.129Z,51.08
2022-12-20T19:42:24.633Z,55.33
2022-12-20T19:45:16.222Z,65.70
2022-12-20T19:48:19.609Z,61.25
2022-12-20T19:51:22.144Z,62.58
2022-12-20T19:54:23.773Z,55.58
2022-12-20T19:57:26.082Z,48.05
2022-12-20T20:00:28.426Z,42.33
2022-12-20T20:03:31.442Z,40.38
2022-12-20T20:06:33.793Z,43.25
2022-12-20T20:09:36.625Z,46.88
2022-12-20T20:12:38.635Z,45.03
2022-12-20T20:15:40.705Z,44.28
2022-12-20T20:18:43.435Z,41.67
2022-12-20T20:21:45.668Z,39.28
2022-12-20T20:24:47.867Z,36.17
2022-12-20T20:27:49.820Z,39.15
2022-12-20T20:30:52.282Z,37.90
2022-12-20T20:33:55.034Z,42.00
2022-12-20T20:36:57.707Z,40.40
2022-12-20T20:39:59.892Z,45.00
2022-12-20T20:43:02.227Z,44.70
2022-12-20T20:46:04.825Z,42.95
2022-12-20T20:49:06.628Z,46.28
2022-12-20T20:52:08.708Z,48.87
2022-12-20T20:55:10.656Z,54.15
2022-12-20T20:58:12.938Z,40.30
2022-12-20T21:01:15.013Z,40.35
2022-12-20T21:04:17.059Z,40.22
2022-12-20T21:07:19.216Z,42.85
2022-12-20T21:10:21.504Z,45.63
2022-12-20T21:13:24.350Z,44.80
2022-12-20T21:16:26.268Z,43.53
2022-12-20T21:19:27.961Z,45.65
2022-12-20T21:22:29.950Z,47.95
2022-12-20T21:25:32.090Z,44.80
2022-12-20T21:28:33.752Z,50.35
2022-12-20T21:31:36.294Z,52.25
2022-12-20T21:34:38.413Z,53.13
2022-12-20T21:37:40.049Z,53.65
2022-12-20T21:40:41.691Z,52.28
2022-12-20T21:43:43.837Z,51.78
2022-12-20T21:46:45.505Z,47.13
2022-12-20T21:49:47.283Z,48.22
2022-12-20T21:52:48.952Z,54.88
2022-12-20T21:55:54.007Z,63.10
2022-12-20T21:58:56.303Z,62.17
2022-12-20T22:01:58.420Z,96.97
2022-12-20T22:05:00.325Z,75.35
2022-12-20T22:08:01.999Z,61.85
2022-12-20T22:11:15.165Z,55.15
2022-12-20T22:14:16.807Z,58.80
2022-12-20T22:17:18.498Z,81.32
2022-12-20T22:20:20.112Z,73.35
2022-12-20T22:23:21.787Z,66.30
2022-12-20T22:26:26.075Z,75.00
2022-12-20T22:29:27.756Z,74.43
2022-12-20T22:32:29.380Z,47.05
2022-12-20T22:35:31.017Z,44.97
2022-12-20T22:38:32.946Z,79.43
2022-12-20T22:41:34.964Z,61.97
2022-12-20T22:44:36.839Z,50.75
2022-12-20T22:51:04.410Z,54.67
2022-12-20T22:54:06.053Z,69.05
2022-12-20T22:57:10.360Z,57.40
2022-12-20T23:00:13.256Z,49.15
2022-12-20T23:03:15.063Z,49.38
2022-12-20T23:06:20.287Z,42.62
2022-12-20T23:09:24.860Z,49.55
2022-12-20T23:12:45.579Z,47.10
2022-12-20T23:15:48.550Z,46.33
2022-12-20T23:18:53.347Z,47.80
2022-12-20T23:22:13.517Z,40.80
2022-12-20T23:25:18.238Z,40.15
2022-12-20T23:28:19.839Z,39.25
2022-12-20T23:31:21.470Z,42.03
2022-12-20T23:34:23.355Z,42.95
2022-12-20T23:37:25.088Z,38.30
2022-12-20T23:40:26.725Z,43.63
2022-12-20T23:43:31.242Z,33.58
2022-12-20T23:46:34.047Z,46.70
2022-12-20T23:49:36.173Z,40.95
2022-12-20T23:52:37.799Z,43.47
2022-12-20T23:55:39.640Z,43.40
2022-12-20T23:58:42.389Z,42.22
